Time;durP1;ratioP1;P1;durP2;ratioP2;P2;SDS_P1;SDS_P2;PMS_P1;PMS_P2;Temp;Humidity;BMP_temperature;BMP_pressure;BME280_temperature;BME280_humidity;BME280_pressure;Samples;Min_cycle;Max_cycle;Signal;HPM_P1;HPM_P2
2021/10/19 00:00:21;;;;;;;17.50;14.73;;;14.60;99.90;;;;;;5040019;28;25066;-68
2021/10/19 00:02:47;;;;;;;23.73;15.80;;;14.60;99.90;;;;;;5046739;28;25091;-69
2021/10/19 00:05:13;;;;;;;21.65;15.77;;;14.60;99.90;;;;;;5046761;28;25130;-70
2021/10/19 00:07:39;;;;;;;22.17;16.63;;;14.60;99.90;;;;;;5053016;28;25130;-69
2021/10/19 00:10:06;;;;;;;20.10;15.50;;;14.70;99.90;;;;;;5027734;28;25064;-70
2021/10/19 00:12:32;;;;;;;18.60;15.00;;;14.70;99.90;;;;;;5044791;28;25062;-70
2021/10/19 00:14:58;;;;;;;20.13;15.02;;;14.80;99.90;;;;;;5048112;28;25079;-68
2021/10/19 00:17:23;;;;;;;22.10;15.50;;;14.80;99.90;;;;;;5044243;28;25107;-70
2021/10/19 00:19:49;;;;;;;17.60;14.80;;;14.70;99.90;;;;;;5055275;28;25070;-70
2021/10/19 00:22:16;;;;;;;20.90;14.90;;;14.70;99.90;;;;;;5032438;28;25071;-69
2021/10/19 00:24:42;;;;;;;16.50;14.40;;;14.70;99.90;;;;;;5056228;28;25076;-70
2021/10/19 00:27:07;;;;;;;19.33;14.07;;;14.80;99.90;;;;;;5050813;28;25098;-70
2021/10/19 00:29:33;;;;;;;23.40;15.48;;;14.80;99.90;;;;;;5047287;28;25050;-69
2021/10/19 00:31:59;;;;;;;22.60;15.88;;;14.80;99.90;;;;;;5044980;28;25140;-69
2021/10/19 00:34:25;;;;;;;19.85;14.20;;;14.80;99.90;;;;;;5043119;28;25116;-70
2021/10/19 00:36:50;;;;;;;19.67;15.65;;;14.70;99.90;;;;;;5021958;28;25144;-67
2021/10/19 00:39:16;;;;;;;18.15;14.75;;;14.80;99.90;;;;;;5043465;28;25131;-70
2021/10/19 00:41:43;;;;;;;19.00;14.75;;;14.80;99.90;;;;;;5031918;28;25090;-69
2021/10/19 00:44:08;;;;;;;17.98;14.25;;;14.80;99.90;;;;;;5043624;28;25086;-69
2021/10/19 00:46:34;;;;;;;17.23;14.68;;;14.80;99.90;;;;;;5045359;28;25060;-71
2021/10/19 00:49:00;;;;;;;18.00;14.40;;;14.90;99.90;;;;;;5045662;28;25142;-70
2021/10/19 00:51:26;;;;;;;17.63;14.25;;;14.90;99.90;;;;;;5038873;28;25072;-69
2021/10/19 00:53:51;;;;;;;19.13;15.40;;;14.90;99.90;;;;;;5032803;28;25127;-69
2021/10/19 00:56:17;;;;;;;17.33;14.93;;;14.90;99.90;;;;;;5042649;28;25067;-69
2021/10/19 00:58:43;;;;;;;19.42;16.08;;;14.80;99.90;;;;;;5028038;28;25050;-69
2021/10/19 01:01:09;;;;;;;26.05;16.30;;;14.80;99.90;;;;;;5044940;28;25066;-69
2021/10/19 01:03:34;;;;;;;22.95;16.58;;;14.80;99.90;;;;;;5056689;28;25067;-69
2021/10/19 01:06:03;;;;;;;18.08;15.45;;;14.80;99.90;;;;;;5053629;28;25092;-68
2021/10/19 01:08:29;;;;;;;22.02;17.02;;;14.80;99.90;;;;;;5033359;28;25073;-69
2021/10/19 01:11:02;;;;;;;24.02;18.90;;;14.80;99.90;;;;;;5041097;28;25054;-65
2021/10/19 01:13:28;;;;;;;26.48;18.00;;;14.60;99.90;;;;;;5034518;28;25077;-69
2021/10/19 01:16:09;;;;;;;22.60;18.88;;;14.60;99.90;;;;;;5041438;28;25067;-69
2021/10/19 01:18:35;;;;;;;21.73;17.40;;;14.60;99.90;;;;;;5035873;28;25144;-70
2021/10/19 01:21:02;;;;;;;19.40;16.52;;;14.60;99.90;;;;;;5041316;28;25121;-70
2021/10/19 01:23:34;;;;;;;28.02;20.40;;;14.60;99.90;;;;;;5052327;28;25080;-69
2021/10/19 01:26:03;;;;;;;27.70;20.52;;;14.50;99.90;;;;;;5000342;28;25113;-69
2021/10/19 01:28:31;;;;;;;29.73;23.08;;;14.50;99.90;;;;;;5041255;28;25060;-65
2021/10/19 01:30:59;;;;;;;32.60;23.15;;;14.50;99.90;;;;;;5025093;28;25053;-68
2021/10/19 01:33:26;;;;;;;30.08;23.10;;;14.40;99.90;;;;;;5053251;28;25121;-70
2021/10/19 01:35:52;;;;;;;25.92;21.17;;;14.40;99.90;;;;;;5035751;28;25057;-69
2021/10/19 01:38:21;;;;;;;31.50;23.13;;;14.40;99.90;;;;;;5041184;28;25069;-68
2021/10/19 01:40:47;;;;;;;31.10;23.67;;;14.30;99.90;;;;;;5036232;28;25136;-69
2021/10/19 01:43:15;;;;;;;32.53;25.10;;;14.30;99.90;;;;;;5014919;28;25121;-69
2021/10/19 01:45:42;;;;;;;32.20;23.42;;;14.30;99.90;;;;;;5045826;28;25043;-68
2021/10/19 01:48:09;;;;;;;29.92;23.52;;;14.30;99.90;;;;;;5027658;28;25168;-69
2021/10/19 01:50:35;;;;;;;34.47;25.45;;;14.40;99.90;;;;;;5041659;28;25091;-70
2021/10/19 01:53:00;;;;;;;35.85;26.98;;;14.30;99.90;;;;;;5049712;28;25084;-68
2021/10/19 01:55:27;;;;;;;37.75;27.52;;;14.30;99.90;;;;;;5040971;28;25054;-68
2021/10/19 01:57:52;;;;;;;43.38;27.77;;;14.30;99.90;;;;;;5026661;28;25089;-69
2021/10/19 02:00:31;;;;;;;39.22;29.85;;;14.40;99.90;;;;;;5046283;28;25113;-66
2021/10/19 02:03:07;;;;;;;31.88;25.38;;;14.30;99.90;;;;;;5061463;28;25093;-66
2021/10/19 02:05:35;;;;;;;30.45;23.77;;;14.30;99.90;;;;;;5032465;28;25060;-68
2021/10/19 02:08:03;;;;;;;38.95;27.85;;;14.40;99.90;;;;;;5040999;28;25099;-67
2021/10/19 02:10:32;;;;;;;41.92;30.80;;;14.40;99.90;;;;;;5028442;28;25113;-65
2021/10/19 02:12:58;;;;;;;42.88;30.92;;;14.40;99.90;;;;;;5056294;28;25053;-68
2021/10/19 02:15:27;;;;;;;44.00;31.27;;;14.30;99.90;;;;;;5042600;28;25057;-70
2021/10/19 02:17:56;;;;;;;32.92;27.30;;;14.30;99.90;;;;;;5043476;28;25097;-69
2021/10/19 02:20:22;;;;;;;38.88;29.70;;;14.40;99.90;;;;;;5022534;28;25101;-69
2021/10/19 02:22:51;;;;;;;43.03;30.88;;;14.40;99.90;;;;;;5044994;28;25063;-70
2021/10/19 02:25:17;;;;;;;39.78;28.80;;;14.40;99.90;;;;;;5016144;28;25109;-70
2021/10/19 02:27:43;;;;;;;37.08;29.83;;;14.40;99.90;;;;;;5045291;28;25134;-71
2021/10/19 02:30:09;;;;;;;45.17;32.85;;;14.40;99.90;;;;;;5046372;28;25105;-70
2021/10/19 02:32:37;;;;;;;46.95;34.78;;;14.40;99.90;;;;;;5045774;28;25094;-70
2021/10/19 02:35:04;;;;;;;46.05;33.95;;;14.40;99.90;;;;;;5046822;28;25056;-70
2021/10/19 02:37:29;;;;;;;32.22;26.63;;;14.40;99.90;;;;;;5045333;28;25134;-70
2021/10/19 02:39:55;;;;;;;39.83;31.40;;;14.40;99.90;;;;;;5029768;28;25074;-68
2021/10/19 02:42:21;;;;;;;45.25;33.15;;;14.40;99.90;;;;;;5048844;28;25081;-70
2021/10/19 02:44:46;;;;;;;41.15;32.70;;;14.50;99.90;;;;;;5045390;28;25077;-67
2021/10/19 02:47:12;;;;;;;42.60;33.13;;;14.50;99.90;;;;;;5037358;28;25148;-69
2021/10/19 02:49:39;;;;;;;48.63;35.10;;;14.60;99.90;;;;;;5027011;28;25125;-66
2021/10/19 02:52:05;;;;;;;44.92;34.75;;;14.50;99.90;;;;;;5050798;28;25122;-69
2021/10/19 02:54:31;;;;;;;47.05;34.08;;;14.60;99.90;;;;;;5018098;28;25120;-69
2021/10/19 02:56:56;;;;;;;50.13;38.08;;;14.50;99.90;;;;;;5047540;28;25122;-70
2021/10/19 02:59:22;;;;;;;41.92;32.80;;;14.50;99.90;;;;;;5054323;28;25083;-68
2021/10/19 03:01:47;;;;;;;44.92;34.05;;;14.60;99.90;;;;;;5045960;28;25079;-73
2021/10/19 03:04:13;;;;;;;43.78;33.10;;;14.50;99.90;;;;;;5075016;28;25118;-67
2021/10/19 03:06:38;;;;;;;47.40;36.85;;;14.60;99.90;;;;;;5050144;28;25081;-69
2021/10/19 03:09:24;;;;;;;41.95;34.60;;;14.60;99.90;;;;;;5064656;28;25068;-66
2021/10/19 03:11:52;;;;;;;35.20;28.70;;;14.60;99.90;;;;;;5043927;28;25158;-67
2021/10/19 03:14:17;;;;;;;47.20;36.30;;;14.70;99.90;;;;;;5049574;28;25074;-70
2021/10/19 03:16:43;;;;;;;41.90;34.42;;;14.70;99.90;;;;;;5041003;28;25090;-70
2021/10/19 03:19:09;;;;;;;38.50;31.38;;;14.70;99.90;;;;;;5024866;28;25076;-69
2021/10/19 03:21:34;;;;;;;45.58;35.05;;;14.70;99.90;;;;;;5044594;28;25019;-70
2021/10/19 03:24:00;;;;;;;40.63;33.78;;;14.70;99.90;;;;;;5043436;28;25144;-70
2021/10/19 03:26:25;;;;;;;43.85;35.67;;;14.70;99.90;;;;;;5040450;28;25083;-69
2021/10/19 03:28:51;;;;;;;37.80;31.30;;;14.70;99.90;;;;;;5047031;28;25069;-70
2021/10/19 03:31:16;;;;;;;45.08;36.13;;;14.70;99.90;;;;;;5042028;28;25078;-69
2021/10/19 03:33:42;;;;;;;46.00;36.40;;;14.70;99.90;;;;;;5041642;28;25111;-70
2021/10/19 03:36:09;;;;;;;43.83;34.97;;;14.70;99.90;;;;;;5039581;28;25108;-67
2021/10/19 03:38:35;;;;;;;46.08;36.55;;;14.80;99.90;;;;;;5029511;28;25072;-71
2021/10/19 03:41:03;;;;;;;41.55;34.67;;;14.80;99.90;;;;;;5027343;28;25057;-68
2021/10/19 03:43:28;;;;;;;40.58;32.75;;;14.80;99.90;;;;;;5022680;28;25071;-70
2021/10/19 03:45:54;;;;;;;44.35;37.22;;;14.80;99.90;;;;;;5045086;28;25071;-68
2021/10/19 03:48:20;;;;;;;38.80;33.80;;;14.80;99.90;;;;;;5042669;28;25053;-70
2021/10/19 03:50:45;;;;;;;45.65;35.30;;;14.80;99.90;;;;;;5038831;28;25086;-71
2021/10/19 03:53:12;;;;;;;39.65;32.90;;;14.90;99.90;;;;;;5045300;28;25113;-69
2021/10/19 03:55:38;;;;;;;34.83;30.00;;;14.90;99.90;;;;;;5022905;28;25069;-71
2021/10/19 03:58:04;;;;;;;39.22;34.35;;;14.90;99.90;;;;;;5036413;28;25087;-70
2021/10/19 04:00:29;;;;;;;40.38;34.80;;;14.90;99.90;;;;;;5031540;28;25061;-69
2021/10/19 04:02:55;;;;;;;38.08;34.08;;;14.90;99.90;;;;;;5042533;28;25053;-70
2021/10/19 04:05:21;;;;;;;44.58;37.10;;;14.90;99.90;;;;;;5044515;28;25059;-67
2021/10/19 04:07:46;;;;;;;43.25;36.25;;;14.90;99.90;;;;;;5043961;28;25156;-69
2021/10/19 04:10:14;;;;;;;44.30;38.15;;;14.90;99.90;;;;;;5042301;28;25070;-71
2021/10/19 04:12:39;;;;;;;44.55;36.60;;;14.90;99.90;;;;;;5018003;28;25048;-68
2021/10/19 04:15:06;;;;;;;42.78;36.75;;;15.00;99.90;;;;;;5043198;28;25067;-69
2021/10/19 04:17:32;;;;;;;50.33;41.00;;;15.00;99.90;;;;;;5040183;28;25050;-68
2021/10/19 04:19:58;;;;;;;39.85;35.58;;;15.00;99.90;;;;;;5034480;28;25073;-70
2021/10/19 04:22:23;;;;;;;32.97;29.77;;;15.00;99.90;;;;;;5043754;28;25063;-69
2021/10/19 04:24:52;;;;;;;46.50;37.70;;;15.00;99.90;;;;;;5042900;28;25094;-70
2021/10/19 04:27:18;;;;;;;36.47;32.58;;;15.00;99.90;;;;;;5044004;28;25069;-70
2021/10/19 04:29:44;;;;;;;47.95;38.90;;;15.10;99.90;;;;;;5040719;28;25057;-69
2021/10/19 04:32:10;;;;;;;48.55;39.40;;;15.10;99.90;;;;;;5040486;28;25082;-69
2021/10/19 04:34:35;;;;;;;42.80;36.70;;;15.00;99.90;;;;;;5037275;28;25064;-70
2021/10/19 04:37:01;;;;;;;43.60;36.40;;;15.00;99.90;;;;;;5042146;28;25059;-70
2021/10/19 04:39:28;;;;;;;46.53;38.65;;;15.00;99.90;;;;;;5045433;28;25055;-70
2021/10/19 04:41:54;;;;;;;37.95;33.85;;;15.00;99.90;;;;;;5039477;28;25065;-69
2021/10/19 04:44:20;;;;;;;40.00;35.08;;;15.10;99.90;;;;;;5044615;28;25047;-72
2021/10/19 04:46:46;;;;;;;41.67;36.50;;;15.10;99.90;;;;;;5043312;28;25076;-71
2021/10/19 04:49:11;;;;;;;45.53;37.50;;;15.10;99.90;;;;;;5034407;28;25100;-70
2021/10/19 04:51:37;;;;;;;38.88;34.75;;;15.10;99.90;;;;;;5041994;28;25098;-70
2021/10/19 04:54:03;;;;;;;43.65;38.15;;;15.20;99.90;;;;;;5045033;28;25060;-70
2021/10/19 04:56:29;;;;;;;42.33;36.58;;;15.20;99.90;;;;;;5043617;28;25132;-71
2021/10/19 04:58:54;;;;;;;44.97;37.03;;;15.20;99.90;;;;;;5047577;28;25156;-69
2021/10/19 05:01:20;;;;;;;55.78;42.25;;;15.20;99.90;;;;;;5054561;28;25072;-70
2021/10/19 05:03:46;;;;;;;49.95;39.50;;;15.20;99.90;;;;;;5057202;28;25059;-70
2021/10/19 05:06:13;;;;;;;50.10;39.08;;;15.20;99.90;;;;;;5058750;28;25125;-70
2021/10/19 05:08:39;;;;;;;58.53;43.22;;;15.20;99.90;;;;;;5033755;28;25103;-71
2021/10/19 05:11:05;;;;;;;52.92;38.92;;;15.20;99.90;;;;;;5037675;28;25094;-69
2021/10/19 05:13:30;;;;;;;51.92;40.15;;;15.30;99.90;;;;;;5046711;28;25102;-70
2021/10/19 05:15:56;;;;;;;63.22;43.88;;;15.30;99.90;;;;;;5029273;28;25087;-69
2021/10/19 05:18:21;;;;;;;60.60;43.80;;;15.30;99.90;;;;;;5047505;28;25109;-70
2021/10/19 05:20:47;;;;;;;47.38;36.85;;;15.30;99.90;;;;;;5047147;28;25065;-71
2021/10/19 05:23:13;;;;;;;57.33;41.85;;;15.30;99.90;;;;;;5043350;28;25045;-71
2021/10/19 05:25:38;;;;;;;48.22;38.67;;;15.30;99.90;;;;;;5044922;28;25076;-70
2021/10/19 05:28:04;;;;;;;51.67;39.70;;;15.30;99.90;;;;;;5027979;28;25127;-71
2021/10/19 05:30:30;;;;;;;53.35;41.65;;;15.40;99.90;;;;;;5047261;28;25125;-70
2021/10/19 05:32:55;;;;;;;57.40;41.95;;;15.30;99.90;;;;;;5045996;28;25054;-70
2021/10/19 05:35:21;;;;;;;40.13;33.42;;;15.40;99.90;;;;;;5041784;28;25202;-70
2021/10/19 05:37:46;;;;;;;52.80;40.47;;;15.40;99.90;;;;;;5041039;28;25085;-71
2021/10/19 05:40:12;;;;;;;35.25;30.83;;;15.40;99.90;;;;;;5043318;28;25066;-70
2021/10/19 05:42:38;;;;;;;52.70;40.08;;;15.40;99.90;;;;;;5044623;28;25074;-70
2021/10/19 05:45:05;;;;;;;37.40;32.78;;;15.40;99.90;;;;;;5024273;28;25059;-71
2021/10/19 05:47:30;;;;;;;46.63;38.28;;;15.50;99.90;;;;;;5020293;28;25092;-71
2021/10/19 05:49:56;;;;;;;45.92;36.45;;;15.40;99.90;;;;;;5049996;28;25107;-71
2021/10/19 05:52:22;;;;;;;48.90;39.70;;;15.40;99.90;;;;;;5041441;28;25059;-70
2021/10/19 05:54:47;;;;;;;55.10;40.80;;;15.40;99.90;;;;;;5040058;28;25153;-71
2021/10/19 05:57:13;;;;;;;48.47;37.95;;;15.40;99.90;;;;;;5045049;28;25106;-69
2021/10/19 05:59:38;;;;;;;57.88;41.72;;;15.40;99.90;;;;;;5047805;28;25115;-70
2021/10/19 06:02:04;;;;;;;60.80;42.80;;;15.40;99.90;;;;;;5043280;28;25086;-73
2021/10/19 06:04:30;;;;;;;61.00;41.65;;;15.50;99.90;;;;;;5048436;28;25077;-69
2021/10/19 06:07:00;;;;;;;55.08;41.80;;;15.50;99.90;;;;;;5027579;28;25057;-70
2021/10/19 06:09:27;;;;;;;50.08;37.97;;;15.50;99.90;;;;;;5026749;28;25139;-72
2021/10/19 06:11:54;;;;;;;61.97;42.92;;;15.50;99.90;;;;;;5048459;28;25128;-70
2021/10/19 06:14:22;;;;;;;58.28;41.90;;;15.50;99.90;;;;;;5031227;28;25098;-71
2021/10/19 06:16:48;;;;;;;63.65;42.15;;;15.50;99.90;;;;;;5028397;28;25122;-70
2021/10/19 06:19:14;;;;;;;56.88;41.00;;;15.50;99.90;;;;;;5048974;28;25072;-71
2021/10/19 06:21:40;;;;;;;63.33;42.00;;;15.60;99.90;;;;;;5049603;28;25067;-70
2021/10/19 06:24:07;;;;;;;67.00;45.35;;;15.60;99.90;;;;;;5033488;28;25050;-71
2021/10/19 06:26:35;;;;;;;73.50;46.38;;;15.60;99.90;;;;;;5055474;28;25063;-71
2021/10/19 06:29:02;;;;;;;59.25;42.13;;;15.60;99.90;;;;;;5053201;28;25125;-70
2021/10/19 06:31:28;;;;;;;49.17;38.38;;;15.70;99.90;;;;;;5033152;28;25095;-73
2021/10/19 06:33:53;;;;;;;74.80;44.17;;;15.80;99.90;;;;;;5052215;28;25081;-70
2021/10/19 06:36:19;;;;;;;66.00;45.30;;;15.70;99.90;;;;;;5056850;28;25098;-71
2021/10/19 06:38:45;;;;;;;80.38;48.15;;;15.70;99.90;;;;;;5059583;28;25081;-70
2021/10/19 06:41:10;;;;;;;71.85;47.08;;;15.80;99.90;;;;;;5057639;28;25106;-71
2021/10/19 06:43:36;;;;;;;75.90;47.75;;;15.80;99.90;;;;;;5066399;28;25059;-71
2021/10/19 06:46:04;;;;;;;61.38;42.13;;;15.80;99.90;;;;;;5061080;28;25057;-70
2021/10/19 06:48:31;;;;;;;75.53;46.45;;;15.80;99.90;;;;;;5060781;28;25156;-71
2021/10/19 06:50:57;;;;;;;62.90;43.78;;;15.80;99.90;;;;;;5031692;28;25075;-71
2021/10/19 06:53:22;;;;;;;63.10;43.10;;;15.80;99.90;;;;;;5056979;28;25067;-70
2021/10/19 06:55:48;;;;;;;65.25;42.85;;;15.80;99.90;;;;;;5051575;28;25139;-71
2021/10/19 06:58:14;;;;;;;68.45;45.42;;;15.80;99.90;;;;;;5051327;28;25093;-69
2021/10/19 07:00:39;;;;;;;79.85;47.30;;;15.90;99.90;;;;;;5054103;28;25057;-71
2021/10/19 07:03:05;;;;;;;55.35;38.65;;;15.90;99.90;;;;;;5067767;28;25068;-70
2021/10/19 07:05:31;;;;;;;67.35;42.53;;;16.00;99.90;;;;;;5043339;28;25059;-69
2021/10/19 07:07:57;;;;;;;68.88;44.28;;;15.90;99.90;;;;;;5054840;28;25065;-71
2021/10/19 07:10:23;;;;;;;64.65;43.47;;;16.00;99.90;;;;;;5053031;28;25073;-72
2021/10/19 07:12:49;;;;;;;69.20;44.42;;;15.90;99.90;;;;;;5048789;28;25072;-72
2021/10/19 07:15:15;;;;;;;59.42;41.08;;;16.00;99.90;;;;;;5035628;28;25076;-71
2021/10/19 07:17:42;;;;;;;51.00;37.72;;;15.90;99.90;;;;;;5045444;28;25098;-73
2021/10/19 07:20:11;;;;;;;53.90;37.05;;;15.90;99.90;;;;;;5053022;28;25076;-69
2021/10/19 07:22:37;;;;;;;67.47;43.33;;;16.00;99.90;;;;;;5038986;28;25049;-72
2021/10/19 07:25:05;;;;;;;52.80;36.40;;;16.00;99.90;;;;;;5048410;28;25061;-71
2021/10/19 07:27:31;;;;;;;51.58;37.55;;;16.00;99.90;;;;;;5028832;28;25057;-72
2021/10/19 07:29:58;;;;;;;58.83;39.40;;;16.10;99.90;;;;;;5051775;28;25060;-74
2021/10/19 07:32:25;;;;;;;59.60;38.60;;;16.10;99.90;;;;;;5035300;28;25097;-74
2021/10/19 07:34:51;;;;;;;50.67;36.92;;;16.10;99.90;;;;;;5029184;28;25114;-71
2021/10/19 07:37:17;;;;;;;50.30;37.03;;;16.10;99.90;;;;;;5045476;28;25072;-72
2021/10/19 07:39:43;;;;;;;56.67;37.75;;;16.10;99.90;;;;;;5034071;28;25077;-73
2021/10/19 07:42:10;;;;;;;47.60;35.30;;;16.20;99.90;;;;;;5046477;28;25125;-71
2021/10/19 07:44:36;;;;;;;55.15;38.08;;;16.20;99.90;;;;;;5049208;28;25106;-71
2021/10/19 07:47:02;;;;;;;49.25;35.67;;;16.20;99.90;;;;;;5048122;28;25080;-71
2021/10/19 07:49:27;;;;;;;50.05;35.53;;;16.10;99.90;;;;;;5023701;28;25129;-71
2021/10/19 07:51:53;;;;;;;46.30;34.70;;;16.10;99.90;;;;;;5048951;28;25047;-70
2021/10/19 07:54:19;;;;;;;43.88;34.17;;;16.20;99.90;;;;;;5028637;28;25107;-71
2021/10/19 07:56:45;;;;;;;41.22;33.35;;;16.20;99.90;;;;;;5049305;28;25060;-70
2021/10/19 07:59:10;;;;;;;41.45;32.22;;;16.20;99.90;;;;;;5047287;28;25086;-69
2021/10/19 08:01:36;;;;;;;53.25;35.80;;;16.20;99.90;;;;;;5029204;28;25081;-70
2021/10/19 08:04:03;;;;;;;43.53;32.88;;;16.20;99.90;;;;;;5051637;28;25065;-70
2021/10/19 08:06:30;;;;;;;43.78;33.20;;;16.20;99.90;;;;;;5028133;28;25075;-71
2021/10/19 08:08:55;;;;;;;48.10;34.53;;;16.20;99.90;;;;;;5048833;28;25152;-74
2021/10/19 08:11:21;;;;;;;39.05;30.65;;;16.20;99.90;;;;;;5042294;28;25060;-73
2021/10/19 08:13:47;;;;;;;42.90;32.78;;;16.30;99.90;;;;;;5042455;28;25175;-72
2021/10/19 08:16:14;;;;;;;39.28;29.60;;;16.30;99.90;;;;;;5028726;28;25150;-71
2021/10/19 08:18:39;;;;;;;41.17;32.55;;;16.30;99.90;;;;;;5048627;28;25129;-70
2021/10/19 08:21:09;;;;;;;32.60;28.80;;;16.30;99.90;;;;;;5043953;28;25131;-70
2021/10/19 08:23:35;;;;;;;41.05;31.98;;;16.30;99.90;;;;;;5043781;28;25137;-71
2021/10/19 08:26:01;;;;;;;41.45;31.25;;;16.40;99.90;;;;;;5029852;28;25101;-71
2021/10/19 08:28:31;;;;;;;51.80;36.10;;;16.40;99.90;;;;;;5043851;28;25062;-70
2021/10/19 08:30:57;;;;;;;38.03;29.90;;;16.40;99.90;;;;;;5046999;28;25051;-72
2021/10/19 08:33:22;;;;;;;52.92;35.45;;;16.40;99.90;;;;;;5047094;28;25060;-70
2021/10/19 08:35:48;;;;;;;49.22;35.53;;;16.40;99.90;;;;;;5043790;28;25090;-71
2021/10/19 08:38:14;;;;;;;52.03;36.95;;;16.40;99.90;;;;;;5053728;28;25226;-71
2021/10/19 08:40:43;;;;;;;50.75;35.38;;;16.40;99.90;;;;;;5014831;28;25051;-69
2021/10/19 08:43:10;;;;;;;47.13;34.00;;;16.50;99.90;;;;;;5027858;28;25064;-72
2021/10/19 08:45:36;;;;;;;46.10;32.30;;;16.50;99.90;;;;;;5044186;28;25138;-72
2021/10/19 08:48:03;;;;;;;42.42;32.58;;;16.50;99.90;;;;;;5046502;28;25066;-71
2021/10/19 08:50:29;;;;;;;45.38;33.88;;;16.60;99.90;;;;;;5053163;28;25102;-72
2021/10/19 08:52:55;;;;;;;49.20;36.13;;;16.50;99.90;;;;;;5049550;28;25065;-71
2021/10/19 08:55:21;;;;;;;46.63;33.03;;;16.50;99.90;;;;;;5046893;28;25163;-67
2021/10/19 08:57:47;;;;;;;49.80;34.42;;;16.60;99.90;;;;;;5049645;28;25066;-72
2021/10/19 09:00:14;;;;;;;50.47;36.33;;;16.60;99.90;;;;;;5048537;28;25077;-70
2021/10/19 09:02:43;;;;;;;55.63;37.22;;;16.60;99.90;;;;;;5034416;28;25077;-71
2021/10/19 09:05:21;;;;;;;47.55;35.20;;;16.60;99.90;;;;;;5048679;28;25050;-69
2021/10/19 09:07:59;;;;;;;49.90;33.45;;;16.60;99.90;;;;;;5046588;28;25100;-68
2021/10/19 09:10:27;;;;;;;53.70;34.72;;;16.60;99.90;;;;;;5049730;28;25159;-69
2021/10/19 09:12:57;;;;;;;52.63;35.47;;;16.60;99.90;;;;;;5044098;28;25073;-70
2021/10/19 09:15:30;;;;;;;51.13;35.08;;;16.70;99.90;;;;;;5044960;28;25090;-71
2021/10/19 09:18:04;;;;;;;46.85;32.88;;;16.70;99.90;;;;;;5044914;28;25079;-71
2021/10/19 09:20:40;;;;;;;47.78;33.95;;;16.70;99.90;;;;;;5051290;28;25100;-72
2021/10/19 09:23:07;;;;;;;42.38;31.23;;;16.80;99.90;;;;;;5042276;28;25076;-70
2021/10/19 09:25:34;;;;;;;46.88;32.35;;;16.80;99.90;;;;;;5051182;28;25101;-69
2021/10/19 09:28:02;;;;;;;45.80;33.63;;;16.80;99.90;;;;;;5047657;28;25095;-71
2021/10/19 09:30:33;;;;;;;40.95;30.27;;;16.80;99.90;;;;;;5030053;28;25107;-70
2021/10/19 09:33:00;;;;;;;37.08;28.10;;;16.80;99.90;;;;;;5048356;28;25173;-70
2021/10/19 09:35:26;;;;;;;37.53;27.75;;;16.90;99.90;;;;;;5046843;28;25100;-70
2021/10/19 09:37:58;;;;;;;36.42;26.02;;;16.90;99.90;;;;;;5051315;28;25108;-68
2021/10/19 09:40:39;;;;;;;36.83;27.55;;;16.90;99.90;;;;;;5049336;28;25068;-70
2021/10/19 09:43:07;;;;;;;39.97;27.73;;;16.90;99.90;;;;;;5026735;28;25109;-69
2021/10/19 09:45:34;;;;;;;38.75;27.88;;;17.00;99.90;;;;;;5048523;28;25152;-70
2021/10/19 09:48:00;;;;;;;37.80;25.95;;;17.00;99.90;;;;;;5029908;28;25493;-71
2021/10/19 09:50:28;;;;;;;30.52;24.23;;;17.00;99.90;;;;;;5049374;28;25080;-72
2021/10/19 09:52:54;;;;;;;32.88;25.55;;;17.00;99.90;;;;;;5048748;28;25069;-68
2021/10/19 09:55:22;;;;;;;40.67;26.63;;;17.10;99.90;;;;;;5036117;28;25092;-70
2021/10/19 09:57:52;;;;;;;38.20;27.15;;;17.10;99.90;;;;;;5050822;28;25136;-70
2021/10/19 10:00:19;;;;;;;38.45;27.40;;;17.10;99.90;;;;;;5036914;28;25116;-69
2021/10/19 10:02:45;;;;;;;35.17;26.00;;;17.10;99.90;;;;;;5039620;28;25113;-70
2021/10/19 10:05:11;;;;;;;35.65;26.33;;;17.20;99.90;;;;;;5049458;28;25050;-70
2021/10/19 10:07:41;;;;;;;42.47;28.77;;;17.20;99.90;;;;;;5028820;28;25066;-70
2021/10/19 10:10:07;;;;;;;38.45;25.65;;;17.20;99.90;;;;;;5051072;28;25063;-71
2021/10/19 10:12:34;;;;;;;34.88;25.98;;;17.20;99.90;;;;;;5037507;28;25152;-72
2021/10/19 10:15:00;;;;;;;39.38;27.77;;;17.20;99.90;;;;;;5048385;28;25173;-70
2021/10/19 10:17:25;;;;;;;34.55;25.27;;;17.30;99.90;;;;;;5057240;28;25095;-70
2021/10/19 10:19:51;;;;;;;32.22;24.27;;;17.30;99.90;;;;;;5055922;28;25081;-68
2021/10/19 10:22:28;;;;;;;29.67;23.02;;;17.30;99.90;;;;;;5060442;28;25073;-70
2021/10/19 10:25:09;;;;;;;28.70;21.00;;;17.30;99.90;;;;;;5039957;28;25110;-68
2021/10/19 10:27:36;;;;;;;28.45;22.15;;;17.30;99.90;;;;;;5044490;28;25046;-68
2021/10/19 10:30:02;;;;;;;28.77;22.25;;;17.40;99.90;;;;;;5050490;28;25062;-68
2021/10/19 10:32:29;;;;;;;24.70;21.83;;;17.40;99.90;;;;;;5047482;28;25090;-71
2021/10/19 10:35:06;;;;;;;32.88;23.15;;;17.40;99.90;;;;;;5050565;28;25140;-69
2021/10/19 10:37:41;;;;;;;34.58;24.13;;;17.40;99.90;;;;;;5040208;28;25073;-70
2021/10/19 10:40:11;;;;;;;33.60;23.15;;;17.40;99.90;;;;;;5050633;28;25072;-72
2021/10/19 10:42:40;;;;;;;35.75;24.95;;;17.50;99.90;;;;;;5035535;28;25088;-71
2021/10/19 10:45:16;;;;;;;29.02;22.85;;;17.50;99.90;;;;;;5030202;28;25096;-71
2021/10/19 10:47:47;;;;;;;31.33;23.67;;;17.50;99.90;;;;;;5049413;28;25143;-70
2021/10/19 10:50:13;;;;;;;28.38;23.23;;;17.50;99.90;;;;;;5045060;28;25092;-69
2021/10/19 10:52:39;;;;;;;29.98;24.45;;;17.50;99.90;;;;;;5037593;28;25134;-70
2021/10/19 10:55:12;;;;;;;32.65;25.30;;;17.60;99.90;;;;;;5025858;28;25078;-68
2021/10/19 10:57:43;;;;;;;29.83;24.55;;;17.60;99.90;;;;;;5027466;28;25053;-67
2021/10/19 11:00:09;;;;;;;28.38;23.50;;;17.60;99.90;;;;;;5057712;28;25069;-69
2021/10/19 11:02:35;;;;;;;27.63;23.58;;;17.60;99.90;;;;;;5045602;28;25064;-69
2021/10/19 11:05:02;;;;;;;24.77;21.75;;;17.60;99.90;;;;;;5030897;28;25058;-71
2021/10/19 11:07:36;;;;;;;27.45;23.50;;;17.70;99.90;;;;;;5031547;28;25129;-70
2021/10/19 11:10:17;;;;;;;38.25;26.90;;;17.60;99.90;;;;;;5055113;28;25083;-65
2021/10/19 11:12:44;;;;;;;30.67;24.42;;;17.60;99.90;;;;;;5054079;28;25089;-68
2021/10/19 11:15:16;;;;;;;26.83;23.73;;;17.60;99.90;;;;;;5052699;28;25085;-69
2021/10/19 11:17:53;;;;;;;27.05;22.45;;;17.60;99.90;;;;;;5048426;28;25066;-72
2021/10/19 11:20:21;;;;;;;26.70;22.73;;;17.60;99.90;;;;;;5032059;28;25132;-70
2021/10/19 11:22:48;;;;;;;28.10;23.08;;;17.60;99.90;;;;;;5049770;28;25063;-68
2021/10/19 11:25:14;;;;;;;27.42;22.33;;;17.60;99.90;;;;;;5047164;28;25068;-71
2021/10/19 11:27:45;;;;;;;23.33;20.67;;;17.60;99.90;;;;;;5034026;28;25061;-69
2021/10/19 11:30:13;;;;;;;24.27;20.38;;;17.60;99.90;;;;;;5045035;28;25075;-70
2021/10/19 11:32:38;;;;;;;24.67;18.40;;;17.60;99.90;;;;;;5052126;28;25062;-72
2021/10/19 11:35:06;;;;;;;20.98;18.77;;;17.70;99.90;;;;;;5052084;28;25122;-68
2021/10/19 11:37:32;;;;;;;20.63;18.48;;;17.70;99.90;;;;;;5029022;28;25069;-69
2021/10/19 11:40:09;;;;;;;18.77;16.85;;;17.80;99.90;;;;;;5044592;28;25065;-71
2021/10/19 11:43:02;;;;;;;18.33;16.25;;;17.80;99.90;;;;;;5048250;28;25049;-72
2021/10/19 11:45:28;;;;;;;;;;;17.80;99.90;;;;;;5026985;28;25143;-71
2021/10/19 11:47:59;;;;;;;18.90;15.88;;;17.80;99.90;;;;;;5049354;28;24129;-72
2021/10/19 11:50:31;;;;;;;24.75;16.55;;;17.90;99.90;;;;;;5045484;28;25124;-68
2021/10/19 11:52:58;;;;;;;19.27;16.27;;;17.90;99.90;;;;;;5045599;28;25073;-68
2021/10/19 11:55:24;;;;;;;19.83;16.05;;;17.90;99.90;;;;;;5048446;28;25124;-70
2021/10/19 11:57:52;;;;;;;16.25;13.77;;;17.90;99.90;;;;;;5047801;28;25068;-68
2021/10/19 12:00:20;;;;;;;18.95;14.90;;;17.90;99.90;;;;;;5045004;28;25084;-68
2021/10/19 12:03:03;;;;;;;18.45;14.48;;;17.90;99.90;;;;;;5048358;28;25126;-70
2021/10/19 12:05:30;;;;;;;17.33;14.07;;;17.90;99.90;;;;;;5031583;28;25135;-68
2021/10/19 12:07:58;;;;;;;20.17;14.40;;;17.90;99.90;;;;;;5040206;28;25101;-68
2021/10/19 12:10:26;;;;;;;18.42;13.88;;;17.90;99.90;;;;;;5044970;28;25177;-68
2021/10/19 12:13:02;;;;;;;17.50;14.27;;;17.90;99.90;;;;;;5026557;28;25100;-72
2021/10/19 12:15:30;;;;;;;20.13;14.75;;;18.00;99.90;;;;;;5044019;28;25110;-72
2021/10/19 12:18:02;;;;;;;17.00;14.15;;;17.90;99.90;;;;;;5042389;28;25161;-70
2021/10/19 12:20:33;;;;;;;22.27;15.75;;;18.00;99.90;;;;;;5042568;28;25080;-69
2021/10/19 12:23:02;;;;;;;21.67;16.58;;;17.90;99.90;;;;;;5045527;28;25149;-71
2021/10/19 12:25:48;;;;;;;21.95;17.52;;;17.90;99.90;;;;;;5037233;28;25095;-70
2021/10/19 12:28:28;;;;;;;22.95;17.17;;;17.90;99.90;;;;;;5044795;28;25091;-70